sensor_id;sensor_type;location;lat;lon;timestamp;P1;durP1;ratioP1;P2;durP2;ratioP2
12218;SDS011;6172;42.646;23.344;2023-11-19T00:00:54;1.33;;;1.23;;
12218;SDS011;6172;42.646;23.344;2023-11-19T00:03:25;1.63;;;1.33;;
12218;SDS011;6172;42.646;23.344;2023-11-19T00:05:53;1.50;;;1.30;;
12218;SDS011;6172;42.646;23.344;2023-11-19T00:08:23;1.60;;;1.50;;
12218;SDS011;6172;42.646;23.344;2023-11-19T00:10:50;1.20;;;1.10;;
12218;SDS011;6172;42.646;23.344;2023-11-19T00:13:17;2.00;;;1.50;;
12218;SDS011;6172;42.646;23.344;2023-11-19T00:15:44;1.33;;;1.23;;
12218;SDS011;6172;42.646;23.344;2023-11-19T00:18:12;1.97;;;1.47;;
12218;SDS011;6172;42.646;23.344;2023-11-19T00:20:39;2.37;;;1.27;;
12218;SDS011;6172;42.646;23.344;2023-11-19T00:23:08;3.57;;;1.60;;
12218;SDS011;6172;42.646;23.344;2023-11-19T00:25:34;1.30;;;1.20;;
12218;SDS011;6172;42.646;23.344;2023-11-19T00:28:03;1.80;;;1.27;;
12218;SDS011;6172;42.646;23.344;2023-11-19T00:30:30;0.97;;;0.97;;
12218;SDS011;6172;42.646;23.344;2023-11-19T00:32:57;1.30;;;1.10;;
12218;SDS011;6172;42.646;23.344;2023-11-19T00:35:24;1.17;;;1.07;;
12218;SDS011;6172;42.646;23.344;2023-11-19T00:37:53;1.40;;;1.20;;
12218;SDS011;6172;42.646;23.344;2023-11-19T00:40:21;1.50;;;1.40;;
12218;SDS011;6172;42.646;23.344;2023-11-19T00:42:48;1.80;;;1.40;;
12218;SDS011;6172;42.646;23.344;2023-11-19T00:45:16;1.30;;;1.20;;
12218;SDS011;6172;42.646;23.344;2023-11-19T00:47:42;1.60;;;1.50;;
12218;SDS011;6172;42.646;23.344;2023-11-19T00:50:09;1.80;;;1.60;;
12218;SDS011;6172;42.646;23.344;2023-11-19T00:52:38;1.70;;;1.60;;
12218;SDS011;6172;42.646;23.344;2023-11-19T00:55:05;1.50;;;1.23;;
12218;SDS011;6172;42.646;23.344;2023-11-19T00:57:38;1.33;;;1.23;;
12218;SDS011;6172;42.646;23.344;2023-11-19T01:00:05;1.63;;;1.33;;
12218;SDS011;6172;42.646;23.344;2023-11-19T01:02:43;1.47;;;1.17;;
12218;SDS011;6172;42.646;23.344;2023-11-19T01:05:10;1.80;;;1.70;;
12218;SDS011;6172;42.646;23.344;2023-11-19T01:07:39;1.53;;;1.43;;
12218;SDS011;6172;42.646;23.344;2023-11-19T01:10:06;1.43;;;1.20;;
12218;SDS011;6172;42.646;23.344;2023-11-19T01:12:33;1.50;;;1.40;;
12218;SDS011;6172;42.646;23.344;2023-11-19T01:15:02;2.40;;;1.40;;
12218;SDS011;6172;42.646;23.344;2023-11-19T01:17:29;1.43;;;1.30;;
12218;SDS011;6172;42.646;23.344;2023-11-19T01:19:57;1.57;;;1.10;;
12218;SDS011;6172;42.646;23.344;2023-11-19T01:22:23;1.70;;;1.43;;
12218;SDS011;6172;42.646;23.344;2023-11-19T01:24:50;1.40;;;1.20;;
12218;SDS011;6172;42.646;23.344;2023-11-19T01:27:19;1.60;;;1.40;;
12218;SDS011;6172;42.646;23.344;2023-11-19T01:29:46;1.43;;;1.33;;
12218;SDS011;6172;42.646;23.344;2023-11-19T01:32:14;1.57;;;1.47;;
12218;SDS011;6172;42.646;23.344;2023-11-19T01:34:41;1.50;;;1.40;;
12218;SDS011;6172;42.646;23.344;2023-11-19T01:37:08;1.20;;;1.20;;
12218;SDS011;6172;42.646;23.344;2023-11-19T01:39:37;1.50;;;1.40;;
12218;SDS011;6172;42.646;23.344;2023-11-19T01:42:04;2.10;;;1.60;;
12218;SDS011;6172;42.646;23.344;2023-11-19T01:44:31;1.37;;;1.27;;
12218;SDS011;6172;42.646;23.344;2023-11-19T01:46:58;1.43;;;1.30;;
12218;SDS011;6172;42.646;23.344;2023-11-19T01:49:28;1.67;;;1.10;;
12218;SDS011;6172;42.646;23.344;2023-11-19T01:51:55;1.17;;;1.07;;
12218;SDS011;6172;42.646;23.344;2023-11-19T01:54:24;1.17;;;1.00;;
12218;SDS011;6172;42.646;23.344;2023-11-19T01:56:51;1.37;;;0.90;;
12218;SDS011;6172;42.646;23.344;2023-11-19T01:59:21;1.37;;;1.27;;
12218;SDS011;6172;42.646;23.344;2023-11-19T02:01:52;1.27;;;1.10;;
12218;SDS011;6172;42.646;23.344;2023-11-19T02:04:20;1.40;;;1.30;;
12218;SDS011;6172;42.646;23.344;2023-11-19T02:06:49;1.50;;;1.13;;
12218;SDS011;6172;42.646;23.344;2023-11-19T02:09:20;1.33;;;1.23;;
12218;SDS011;6172;42.646;23.344;2023-11-19T02:11:47;2.30;;;1.30;;
12218;SDS011;6172;42.646;23.344;2023-11-19T02:14:16;1.40;;;1.30;;
12218;SDS011;6172;42.646;23.344;2023-11-19T02:16:45;0.93;;;0.73;;
12218;SDS011;6172;42.646;23.344;2023-11-19T02:19:12;1.03;;;0.93;;
12218;SDS011;6172;42.646;23.344;2023-11-19T02:21:39;2.47;;;1.10;;
12218;SDS011;6172;42.646;23.344;2023-11-19T02:24:08;1.07;;;1.00;;
12218;SDS011;6172;42.646;23.344;2023-11-19T02:26:39;1.20;;;0.87;;
12218;SDS011;6172;42.646;23.344;2023-11-19T02:29:13;0.90;;;0.90;;
12218;SDS011;6172;42.646;23.344;2023-11-19T02:31:40;1.30;;;1.20;;
12218;SDS011;6172;42.646;23.344;2023-11-19T02:34:07;1.20;;;1.10;;
12218;SDS011;6172;42.646;23.344;2023-11-19T02:36:37;1.23;;;1.13;;
12218;SDS011;6172;42.646;23.344;2023-11-19T02:39:06;1.27;;;1.17;;
12218;SDS011;6172;42.646;23.344;2023-11-19T02:41:36;1.17;;;1.07;;
12218;SDS011;6172;42.646;23.344;2023-11-19T02:44:05;1.13;;;1.03;;
12218;SDS011;6172;42.646;23.344;2023-11-19T02:46:34;0.90;;;0.90;;
12218;SDS011;6172;42.646;23.344;2023-11-19T02:49:00;1.10;;;1.00;;
12218;SDS011;6172;42.646;23.344;2023-11-19T02:51:27;1.20;;;0.87;;
12218;SDS011;6172;42.646;23.344;2023-11-19T02:53:55;1.33;;;1.07;;
12218;SDS011;6172;42.646;23.344;2023-11-19T02:56:23;1.00;;;1.00;;
12218;SDS011;6172;42.646;23.344;2023-11-19T02:58:51;2.30;;;1.13;;
12218;SDS011;6172;42.646;23.344;2023-11-19T03:01:22;1.33;;;1.03;;
12218;SDS011;6172;42.646;23.344;2023-11-19T03:03:56;1.20;;;1.07;;
12218;SDS011;6172;42.646;23.344;2023-11-19T03:06:24;1.00;;;1.00;;
12218;SDS011;6172;42.646;23.344;2023-11-19T03:08:51;1.40;;;1.30;;
12218;SDS011;6172;42.646;23.344;2023-11-19T03:11:18;1.10;;;1.00;;
12218;SDS011;6172;42.646;23.344;2023-11-19T03:13:45;1.23;;;1.13;;
12218;SDS011;6172;42.646;23.344;2023-11-19T03:16:12;1.17;;;1.07;;
12218;SDS011;6172;42.646;23.344;2023-11-19T03:18:39;2.23;;;0.90;;
12218;SDS011;6172;42.646;23.344;2023-11-19T03:21:07;1.27;;;1.17;;
12218;SDS011;6172;42.646;23.344;2023-11-19T03:23:34;1.33;;;1.03;;
12218;SDS011;6172;42.646;23.344;2023-11-19T03:26:04;1.40;;;1.23;;
12218;SDS011;6172;42.646;23.344;2023-11-19T03:28:31;1.03;;;0.97;;
12218;SDS011;6172;42.646;23.344;2023-11-19T03:30:59;1.33;;;1.00;;
12218;SDS011;6172;42.646;23.344;2023-11-19T03:33:25;2.97;;;1.43;;
12218;SDS011;6172;42.646;23.344;2023-11-19T03:35:53;1.10;;;1.10;;
12218;SDS011;6172;42.646;23.344;2023-11-19T03:38:23;1.40;;;1.30;;
12218;SDS011;6172;42.646;23.344;2023-11-19T03:40:51;1.47;;;1.13;;
12218;SDS011;6172;42.646;23.344;2023-11-19T03:43:18;1.33;;;1.20;;
12218;SDS011;6172;42.646;23.344;2023-11-19T03:45:45;2.57;;;1.50;;
12218;SDS011;6172;42.646;23.344;2023-11-19T03:48:13;1.97;;;1.20;;
12218;SDS011;6172;42.646;23.344;2023-11-19T03:50:41;1.47;;;1.20;;
12218;SDS011;6172;42.646;23.344;2023-11-19T03:53:08;1.20;;;1.10;;
12218;SDS011;6172;42.646;23.344;2023-11-19T03:55:36;2.77;;;1.10;;
12218;SDS011;6172;42.646;23.344;2023-11-19T03:58:03;1.60;;;1.43;;
12218;SDS011;6172;42.646;23.344;2023-11-19T04:00:30;2.07;;;1.60;;
12218;SDS011;6172;42.646;23.344;2023-11-19T04:02:56;2.03;;;1.10;;
12218;SDS011;6172;42.646;23.344;2023-11-19T04:05:23;1.63;;;1.20;;
12218;SDS011;6172;42.646;23.344;2023-11-19T04:07:50;1.20;;;1.10;;
12218;SDS011;6172;42.646;23.344;2023-11-19T04:10:17;1.20;;;1.10;;
12218;SDS011;6172;42.646;23.344;2023-11-19T04:12:45;1.47;;;1.13;;
12218;SDS011;6172;42.646;23.344;2023-11-19T04:15:13;1.40;;;1.30;;
12218;SDS011;6172;42.646;23.344;2023-11-19T04:17:40;1.23;;;1.17;;
12218;SDS011;6172;42.646;23.344;2023-11-19T04:20:07;1.50;;;1.30;;
12218;SDS011;6172;42.646;23.344;2023-11-19T04:22:37;1.27;;;0.90;;
12218;SDS011;6172;42.646;23.344;2023-11-19T04:25:04;1.87;;;1.20;;
12218;SDS011;6172;42.646;23.344;2023-11-19T04:27:31;1.23;;;1.13;;
12218;SDS011;6172;42.646;23.344;2023-11-19T04:30:00;1.00;;;1.00;;
12218;SDS011;6172;42.646;23.344;2023-11-19T04:32:28;1.17;;;0.90;;
12218;SDS011;6172;42.646;23.344;2023-11-19T04:34:55;2.43;;;1.40;;
12218;SDS011;6172;42.646;23.344;2023-11-19T04:37:22;2.30;;;1.30;;
12218;SDS011;6172;42.646;23.344;2023-11-19T04:39:49;1.00;;;0.97;;
12218;SDS011;6172;42.646;23.344;2023-11-19T04:42:16;1.13;;;1.07;;
12218;SDS011;6172;42.646;23.344;2023-11-19T04:44:43;1.43;;;1.00;;
12218;SDS011;6172;42.646;23.344;2023-11-19T04:47:11;1.10;;;1.00;;
12218;SDS011;6172;42.646;23.344;2023-11-19T04:49:40;1.20;;;1.10;;
12218;SDS011;6172;42.646;23.344;2023-11-19T04:52:08;1.13;;;0.90;;
12218;SDS011;6172;42.646;23.344;2023-11-19T04:54:40;1.30;;;1.03;;
12218;SDS011;6172;42.646;23.344;2023-11-19T04:57:07;3.13;;;1.37;;
12218;SDS011;6172;42.646;23.344;2023-11-19T04:59:36;2.30;;;1.50;;
12218;SDS011;6172;42.646;23.344;2023-11-19T05:02:03;1.57;;;1.20;;
12218;SDS011;6172;42.646;23.344;2023-11-19T05:04:31;1.73;;;1.30;;
12218;SDS011;6172;42.646;23.344;2023-11-19T05:06:58;1.10;;;1.00;;
12218;SDS011;6172;42.646;23.344;2023-11-19T05:09:25;1.23;;;1.00;;
12218;SDS011;6172;42.646;23.344;2023-11-19T05:11:52;0.93;;;0.90;;
12218;SDS011;6172;42.646;23.344;2023-11-19T05:14:19;1.37;;;1.10;;
12218;SDS011;6172;42.646;23.344;2023-11-19T05:16:47;2.30;;;1.03;;
12218;SDS011;6172;42.646;23.344;2023-11-19T05:19:14;1.90;;;0.93;;
12218;SDS011;6172;42.646;23.344;2023-11-19T05:21:43;1.40;;;1.30;;
12218;SDS011;6172;42.646;23.344;2023-11-19T05:24:09;1.80;;;1.13;;
12218;SDS011;6172;42.646;23.344;2023-11-19T05:26:37;2.73;;;1.20;;
12218;SDS011;6172;42.646;23.344;2023-11-19T05:29:04;3.03;;;1.23;;
12218;SDS011;6172;42.646;23.344;2023-11-19T05:31:31;1.00;;;0.90;;
12218;SDS011;6172;42.646;23.344;2023-11-19T05:33:58;1.63;;;1.10;;
12218;SDS011;6172;42.646;23.344;2023-11-19T05:36:25;1.50;;;1.20;;
12218;SDS011;6172;42.646;23.344;2023-11-19T05:38:54;3.00;;;1.10;;
12218;SDS011;6172;42.646;23.344;2023-11-19T05:41:21;1.70;;;1.20;;
12218;SDS011;6172;42.646;23.344;2023-11-19T05:43:48;1.13;;;1.00;;
12218;SDS011;6172;42.646;23.344;2023-11-19T05:46:15;1.43;;;1.20;;
12218;SDS011;6172;42.646;23.344;2023-11-19T05:48:42;1.80;;;1.10;;
12218;SDS011;6172;42.646;23.344;2023-11-19T05:51:10;1.10;;;1.00;;
12218;SDS011;6172;42.646;23.344;2023-11-19T05:53:37;1.47;;;1.00;;
12218;SDS011;6172;42.646;23.344;2023-11-19T05:56:06;1.30;;;1.20;;
12218;SDS011;6172;42.646;23.344;2023-11-19T05:58:34;1.97;;;1.23;;
12218;SDS011;6172;42.646;23.344;2023-11-19T06:01:02;1.70;;;1.27;;
12218;SDS011;6172;42.646;23.344;2023-11-19T06:03:32;1.80;;;1.30;;
12218;SDS011;6172;42.646;23.344;2023-11-19T06:06:00;1.77;;;1.50;;
12218;SDS011;6172;42.646;23.344;2023-11-19T06:08:27;1.60;;;1.50;;
12218;SDS011;6172;42.646;23.344;2023-11-19T06:10:54;1.53;;;0.90;;
12218;SDS011;6172;42.646;23.344;2023-11-19T06:13:23;1.40;;;1.30;;
12218;SDS011;6172;42.646;23.344;2023-11-19T06:15:50;3.43;;;1.37;;
12218;SDS011;6172;42.646;23.344;2023-11-19T06:18:17;1.50;;;1.40;;
12218;SDS011;6172;42.646;23.344;2023-11-19T06:20:45;2.03;;;1.30;;
12218;SDS011;6172;42.646;23.344;2023-11-19T06:23:12;1.17;;;1.03;;
12218;SDS011;6172;42.646;23.344;2023-11-19T06:25:39;1.40;;;1.10;;
12218;SDS011;6172;42.646;23.344;2023-11-19T06:28:06;1.27;;;1.10;;
12218;SDS011;6172;42.646;23.344;2023-11-19T06:30:35;2.63;;;1.27;;
12218;SDS011;6172;42.646;23.344;2023-11-19T06:33:02;1.87;;;1.50;;
12218;SDS011;6172;42.646;23.344;2023-11-19T06:35:29;1.70;;;1.10;;
12218;SDS011;6172;42.646;23.344;2023-11-19T06:38:01;1.83;;;1.47;;
12218;SDS011;6172;42.646;23.344;2023-11-19T06:40:28;1.47;;;1.20;;
12218;SDS011;6172;42.646;23.344;2023-11-19T06:42:55;1.83;;;1.30;;
12218;SDS011;6172;42.646;23.344;2023-11-19T06:45:22;1.73;;;1.57;;
12218;SDS011;6172;42.646;23.344;2023-11-19T06:47:51;1.40;;;1.30;;
12218;SDS011;6172;42.646;23.344;2023-11-19T06:50:18;2.30;;;1.87;;
12218;SDS011;6172;42.646;23.344;2023-11-19T06:52:45;2.17;;;1.70;;
12218;SDS011;6172;42.646;23.344;2023-11-19T06:55:12;2.03;;;1.50;;
12218;SDS011;6172;42.646;23.344;2023-11-19T06:57:39;3.50;;;1.40;;
12218;SDS011;6172;42.646;23.344;2023-11-19T07:00:07;1.67;;;1.47;;
12218;SDS011;6172;42.646;23.344;2023-11-19T07:02:34;2.73;;;1.60;;
12218;SDS011;6172;42.646;23.344;2023-11-19T07:05:03;1.93;;;1.50;;
12218;SDS011;6172;42.646;23.344;2023-11-19T07:07:30;1.53;;;1.23;;
12218;SDS011;6172;42.646;23.344;2023-11-19T07:09:58;1.80;;;1.50;;
12218;SDS011;6172;42.646;23.344;2023-11-19T07:12:24;2.17;;;1.30;;
12218;SDS011;6172;42.646;23.344;2023-11-19T07:14:52;2.77;;;1.70;;
12218;SDS011;6172;42.646;23.344;2023-11-19T07:17:20;2.30;;;1.53;;
12218;SDS011;6172;42.646;23.344;2023-11-19T07:19:49;2.77;;;1.57;;
12218;SDS011;6172;42.646;23.344;2023-11-19T07:22:17;2.03;;;1.43;;
12218;SDS011;6172;42.646;23.344;2023-11-19T07:24:45;3.07;;;1.63;;
12218;SDS011;6172;42.646;23.344;2023-11-19T07:27:12;1.80;;;1.30;;
12218;SDS011;6172;42.646;23.344;2023-11-19T07:29:39;2.47;;;1.67;;
12218;SDS011;6172;42.646;23.344;2023-11-19T07:32:06;2.80;;;2.00;;
12218;SDS011;6172;42.646;23.344;2023-11-19T07:34:33;2.67;;;1.77;;
12218;SDS011;6172;42.646;23.344;2023-11-19T07:37:00;2.70;;;1.53;;
12218;SDS011;6172;42.646;23.344;2023-11-19T07:39:29;2.00;;;1.80;;
12218;SDS011;6172;42.646;23.344;2023-11-19T07:41:56;4.57;;;1.80;;
12218;SDS011;6172;42.646;23.344;2023-11-19T07:44:23;1.50;;;1.40;;
12218;SDS011;6172;42.646;23.344;2023-11-19T07:46:50;1.80;;;1.70;;
12218;SDS011;6172;42.646;23.344;2023-11-19T07:49:17;1.80;;;1.70;;
12218;SDS011;6172;42.646;23.344;2023-11-19T07:51:44;2.17;;;1.30;;
12218;SDS011;6172;42.646;23.344;2023-11-19T07:54:11;2.23;;;1.83;;
12218;SDS011;6172;42.646;23.344;2023-11-19T07:56:41;2.27;;;1.63;;
12218;SDS011;6172;42.646;23.344;2023-11-19T07:59:08;4.87;;;1.53;;
12218;SDS011;6172;42.646;23.344;2023-11-19T08:01:35;1.87;;;1.50;;
12218;SDS011;6172;42.646;23.344;2023-11-19T08:04:02;2.10;;;1.50;;
12218;SDS011;6172;42.646;23.344;2023-11-19T08:06:29;2.00;;;1.80;;
12218;SDS011;6172;42.646;23.344;2023-11-19T08:08:56;2.80;;;2.20;;
12218;SDS011;6172;42.646;23.344;2023-11-19T08:11:24;2.37;;;1.80;;
12218;SDS011;6172;42.646;23.344;2023-11-19T08:13:53;1.63;;;1.50;;
12218;SDS011;6172;42.646;23.344;2023-11-19T08:16:21;2.20;;;1.57;;
12218;SDS011;6172;42.646;23.344;2023-11-19T08:18:48;1.90;;;1.60;;
12218;SDS011;6172;42.646;23.344;2023-11-19T08:21:15;2.57;;;1.67;;
12218;SDS011;6172;42.646;23.344;2023-11-19T08:23:42;2.77;;;1.57;;
12218;SDS011;6172;42.646;23.344;2023-11-19T08:26:09;4.37;;;2.00;;
12218;SDS011;6172;42.646;23.344;2023-11-19T08:28:59;3.00;;;2.00;;
12218;SDS011;6172;42.646;23.344;2023-11-19T08:31:26;2.00;;;1.80;;
12218;SDS011;6172;42.646;23.344;2023-11-19T08:33:53;2.63;;;1.77;;
12218;SDS011;6172;42.646;23.344;2023-11-19T08:36:21;5.87;;;1.93;;
12218;SDS011;6172;42.646;23.344;2023-11-19T08:38:48;3.10;;;2.30;;
12218;SDS011;6172;42.646;23.344;2023-11-19T08:41:16;2.37;;;2.10;;
12218;SDS011;6172;42.646;23.344;2023-11-19T08:43:44;1.80;;;1.67;;
12218;SDS011;6172;42.646;23.344;2023-11-19T08:46:14;2.53;;;1.87;;
12218;SDS011;6172;42.646;23.344;2023-11-19T08:48:40;3.17;;;2.33;;
12218;SDS011;6172;42.646;23.344;2023-11-19T08:51:08;2.47;;;2.00;;
12218;SDS011;6172;42.646;23.344;2023-11-19T08:53:35;1.83;;;1.63;;
12218;SDS011;6172;42.646;23.344;2023-11-19T08:56:02;2.13;;;1.90;;
12218;SDS011;6172;42.646;23.344;2023-11-19T08:58:31;3.47;;;1.90;;
12218;SDS011;6172;42.646;23.344;2023-11-19T09:01:02;3.50;;;1.50;;
12218;SDS011;6172;42.646;23.344;2023-11-19T09:03:39;1.87;;;1.67;;
12218;SDS011;6172;42.646;23.344;2023-11-19T09:06:06;2.10;;;1.90;;
12218;SDS011;6172;42.646;23.344;2023-11-19T09:08:36;2.30;;;1.70;;
12218;SDS011;6172;42.646;23.344;2023-11-19T09:11:08;1.70;;;1.60;;
12218;SDS011;6172;42.646;23.344;2023-11-19T09:13:35;2.70;;;1.80;;
12218;SDS011;6172;42.646;23.344;2023-11-19T09:16:02;2.67;;;1.73;;
12218;SDS011;6172;42.646;23.344;2023-11-19T09:18:29;2.93;;;1.80;;
12218;SDS011;6172;42.646;23.344;2023-11-19T09:20:58;2.10;;;1.90;;
12218;SDS011;6172;42.646;23.344;2023-11-19T09:23:27;1.93;;;1.63;;
12218;SDS011;6172;42.646;23.344;2023-11-19T09:25:54;1.80;;;1.40;;
12218;SDS011;6172;42.646;23.344;2023-11-19T09:28:21;2.43;;;1.70;;
12218;SDS011;6172;42.646;23.344;2023-11-19T09:30:48;1.90;;;1.70;;
12218;SDS011;6172;42.646;23.344;2023-11-19T09:33:14;2.07;;;1.60;;
12218;SDS011;6172;42.646;23.344;2023-11-19T09:35:42;2.37;;;1.80;;
12218;SDS011;6172;42.646;23.344;2023-11-19T09:38:10;3.17;;;2.20;;
12218;SDS011;6172;42.646;23.344;2023-11-19T09:40:37;2.00;;;1.80;;
12218;SDS011;6172;42.646;23.344;2023-11-19T09:43:09;1.70;;;1.27;;
12218;SDS011;6172;42.646;23.344;2023-11-19T09:45:39;1.93;;;1.50;;
12218;SDS011;6172;42.646;23.344;2023-11-19T09:48:15;1.27;;;1.23;;
12218;SDS011;6172;42.646;23.344;2023-11-19T09:50:44;2.23;;;1.77;;
12218;SDS011;6172;42.646;23.344;2023-11-19T09:53:15;2.17;;;1.70;;
12218;SDS011;6172;42.646;23.344;2023-11-19T09:55:42;1.83;;;1.60;;
12218;SDS011;6172;42.646;23.344;2023-11-19T09:58:09;1.77;;;1.50;;
12218;SDS011;6172;42.646;23.344;2023-11-19T10:00:38;2.00;;;1.43;;
12218;SDS011;6172;42.646;23.344;2023-11-19T10:03:06;1.50;;;1.40;;
12218;SDS011;6172;42.646;23.344;2023-11-19T10:05:35;1.90;;;1.30;;
12218;SDS011;6172;42.646;23.344;2023-11-19T10:08:03;2.10;;;1.13;;
12218;SDS011;6172;42.646;23.344;2023-11-19T10:10:32;1.50;;;1.40;;
12218;SDS011;6172;42.646;23.344;2023-11-19T10:12:59;2.43;;;1.23;;
12218;SDS011;6172;42.646;23.344;2023-11-19T10:15:28;1.40;;;1.30;;
12218;SDS011;6172;42.646;23.344;2023-11-19T10:18:00;1.80;;;1.60;;
12218;SDS011;6172;42.646;23.344;2023-11-19T10:20:27;1.10;;;1.10;;
12218;SDS011;6172;42.646;23.344;2023-11-19T10:23:01;2.87;;;0.87;;
12218;SDS011;6172;42.646;23.344;2023-11-19T10:25:29;1.30;;;1.20;;
12218;SDS011;6172;42.646;23.344;2023-11-19T10:27:58;1.17;;;1.07;;
12218;SDS011;6172;42.646;23.344;2023-11-19T10:30:26;1.07;;;0.97;;
12218;SDS011;6172;42.646;23.344;2023-11-19T10:35:52;1.20;;;1.00;;
12218;SDS011;6172;42.646;23.344;2023-11-19T10:38:21;2.87;;;1.03;;
12218;SDS011;6172;42.646;23.344;2023-11-19T10:40:49;0.70;;;0.70;;
12218;SDS011;6172;42.646;23.344;2023-11-19T10:43:18;1.97;;;1.30;;
12218;SDS011;6172;42.646;23.344;2023-11-19T10:45:48;1.10;;;0.97;;
12218;SDS011;6172;42.646;23.344;2023-11-19T10:48:15;0.93;;;0.90;;
12218;SDS011;6172;42.646;23.344;2023-11-19T10:50:44;0.77;;;0.77;;
12218;SDS011;6172;42.646;23.344;2023-11-19T10:53:15;3.17;;;1.03;;
12218;SDS011;6172;42.646;23.344;2023-11-19T10:55:46;1.37;;;1.27;;
12218;SDS011;6172;42.646;23.344;2023-11-19T10:58:15;0.90;;;0.80;;
12218;SDS011;6172;42.646;23.344;2023-11-19T11:00:45;1.00;;;0.90;;
12218;SDS011;6172;42.646;23.344;2023-11-19T11:03:16;1.67;;;1.20;;
12218;SDS011;6172;42.646;23.344;2023-11-19T11:05:44;2.33;;;0.90;;
12218;SDS011;6172;42.646;23.344;2023-11-19T11:08:13;2.30;;;0.90;;
12218;SDS011;6172;42.646;23.344;2023-11-19T11:10:42;1.77;;;0.90;;
12218;SDS011;6172;42.646;23.344;2023-11-19T11:13:11;1.03;;;0.93;;
12218;SDS011;6172;42.646;23.344;2023-11-19T11:18:29;0.90;;;0.90;;
12218;SDS011;6172;42.646;23.344;2023-11-19T11:20:58;0.80;;;0.80;;
12218;SDS011;6172;42.646;23.344;2023-11-19T11:23:36;1.20;;;1.00;;
12218;SDS011;6172;42.646;23.344;2023-11-19T11:26:22;1.43;;;0.93;;
12218;SDS011;6172;42.646;23.344;2023-11-19T11:29:09;1.97;;;1.23;;
12218;SDS011;6172;42.646;23.344;2023-11-19T11:31:44;1.23;;;0.87;;
12218;SDS011;6172;42.646;23.344;2023-11-19T11:34:32;0.90;;;0.90;;
12218;SDS011;6172;42.646;23.344;2023-11-19T11:37:18;1.23;;;1.17;;
12218;SDS011;6172;42.646;23.344;2023-11-19T11:39:52;1.83;;;1.10;;
12218;SDS011;6172;42.646;23.344;2023-11-19T11:42:34;2.13;;;1.03;;
12218;SDS011;6172;42.646;23.344;2023-11-19T11:45:03;0.80;;;0.60;;
12218;SDS011;6172;42.646;23.344;2023-11-19T11:53:22;1.83;;;0.83;;
12218;SDS011;6172;42.646;23.344;2023-11-19T11:55:56;0.60;;;0.60;;
12218;SDS011;6172;42.646;23.344;2023-11-19T11:58:35;3.50;;;1.03;;
12218;SDS011;6172;42.646;23.344;2023-11-19T12:01:04;1.40;;;1.20;;
12218;SDS011;6172;42.646;23.344;2023-11-19T12:03:32;1.83;;;1.17;;
12218;SDS011;6172;42.646;23.344;2023-11-19T12:06:01;3.73;;;1.53;;
12218;SDS011;6172;42.646;23.344;2023-11-19T12:08:30;1.50;;;1.40;;
12218;SDS011;6172;42.646;23.344;2023-11-19T12:11:01;1.63;;;1.50;;
12218;SDS011;6172;42.646;23.344;2023-11-19T12:13:47;1.33;;;1.10;;
12218;SDS011;6172;42.646;23.344;2023-11-19T12:16:20;1.10;;;1.00;;
12218;SDS011;6172;42.646;23.344;2023-11-19T12:18:47;2.67;;;0.80;;
12218;SDS011;6172;42.646;23.344;2023-11-19T12:21:30;1.70;;;1.07;;
12218;SDS011;6172;42.646;23.344;2023-11-19T12:23:58;2.93;;;1.20;;
12218;SDS011;6172;42.646;23.344;2023-11-19T12:26:36;1.57;;;1.20;;
12218;SDS011;6172;42.646;23.344;2023-11-19T12:29:05;2.60;;;1.13;;
12218;SDS011;6172;42.646;23.344;2023-11-19T12:31:33;2.00;;;1.40;;
12218;SDS011;6172;42.646;23.344;2023-11-19T12:34:08;1.13;;;1.00;;
12218;SDS011;6172;42.646;23.344;2023-11-19T12:36:41;1.30;;;1.10;;
12218;SDS011;6172;42.646;23.344;2023-11-19T12:39:08;2.10;;;1.40;;
12218;SDS011;6172;42.646;23.344;2023-11-19T12:41:53;2.50;;;1.60;;
12218;SDS011;6172;42.646;23.344;2023-11-19T12:44:20;1.13;;;1.03;;
12218;SDS011;6172;42.646;23.344;2023-11-19T12:46:58;2.60;;;1.30;;
12218;SDS011;6172;42.646;23.344;2023-11-19T12:49:26;5.53;;;1.70;;
12218;SDS011;6172;42.646;23.344;2023-11-19T12:51:55;2.60;;;1.27;;
12218;SDS011;6172;42.646;23.344;2023-11-19T12:54:36;2.57;;;1.73;;
12218;SDS011;6172;42.646;23.344;2023-11-19T13:00:18;2.20;;;1.83;;
12218;SDS011;6172;42.646;23.344;2023-11-19T13:02:47;1.90;;;1.60;;
12218;SDS011;6172;42.646;23.344;2023-11-19T13:05:26;3.27;;;1.80;;
12218;SDS011;6172;42.646;23.344;2023-11-19T13:10:52;1.67;;;1.47;;
12218;SDS011;6172;42.646;23.344;2023-11-19T13:13:22;2.33;;;1.60;;
12218;SDS011;6172;42.646;23.344;2023-11-19T13:15:50;3.10;;;1.80;;
12218;SDS011;6172;42.646;23.344;2023-11-19T13:18:17;1.53;;;1.43;;
12218;SDS011;6172;42.646;23.344;2023-11-19T13:20:44;3.17;;;2.10;;
12218;SDS011;6172;42.646;23.344;2023-11-19T13:23:11;2.80;;;2.43;;
12218;SDS011;6172;42.646;23.344;2023-11-19T13:25:41;3.63;;;2.33;;
12218;SDS011;6172;42.646;23.344;2023-11-19T13:28:08;3.03;;;2.00;;
12218;SDS011;6172;42.646;23.344;2023-11-19T13:30:35;2.60;;;1.70;;
12218;SDS011;6172;42.646;23.344;2023-11-19T13:33:02;3.70;;;2.00;;
12218;SDS011;6172;42.646;23.344;2023-11-19T13:35:29;6.07;;;2.23;;
12218;SDS011;6172;42.646;23.344;2023-11-19T13:37:58;5.67;;;2.27;;
12218;SDS011;6172;42.646;23.344;2023-11-19T13:40:25;2.50;;;2.10;;
12218;SDS011;6172;42.646;23.344;2023-11-19T13:42:54;4.30;;;2.00;;
12218;SDS011;6172;42.646;23.344;2023-11-19T13:45:20;2.40;;;1.87;;
12218;SDS011;6172;42.646;23.344;2023-11-19T13:47:47;5.53;;;2.43;;
12218;SDS011;6172;42.646;23.344;2023-11-19T13:50:17;3.27;;;2.43;;
12218;SDS011;6172;42.646;23.344;2023-11-19T13:52:44;1.10;;;1.00;;
12218;SDS011;6172;42.646;23.344;2023-11-19T13:55:13;1.00;;;0.80;;
12218;SDS011;6172;42.646;23.344;2023-11-19T13:57:43;1.17;;;0.60;;
12218;SDS011;6172;42.646;23.344;2023-11-19T14:00:13;1.87;;;1.37;;
12218;SDS011;6172;42.646;23.344;2023-11-19T14:02:41;2.93;;;1.80;;
12218;SDS011;6172;42.646;23.344;2023-11-19T14:05:08;3.43;;;2.10;;
12218;SDS011;6172;42.646;23.344;2023-11-19T14:07:44;3.47;;;1.87;;
12218;SDS011;6172;42.646;23.344;2023-11-19T14:10:16;2.30;;;1.70;;
12218;SDS011;6172;42.646;23.344;2023-11-19T14:12:44;3.60;;;2.00;;
12218;SDS011;6172;42.646;23.344;2023-11-19T14:15:12;1.67;;;1.40;;
12218;SDS011;6172;42.646;23.344;2023-11-19T14:17:42;1.40;;;1.30;;
12218;SDS011;6172;42.646;23.344;2023-11-19T14:20:10;2.13;;;1.70;;
12218;SDS011;6172;42.646;23.344;2023-11-19T14:22:39;2.07;;;1.33;;
12218;SDS011;6172;42.646;23.344;2023-11-19T14:25:06;3.50;;;1.70;;
12218;SDS011;6172;42.646;23.344;2023-11-19T14:27:38;4.60;;;1.93;;
12218;SDS011;6172;42.646;23.344;2023-11-19T14:30:08;3.37;;;1.60;;
12218;SDS011;6172;42.646;23.344;2023-11-19T14:32:38;2.90;;;1.57;;
12218;SDS011;6172;42.646;23.344;2023-11-19T14:35:05;3.27;;;1.73;;
12218;SDS011;6172;42.646;23.344;2023-11-19T14:37:33;2.63;;;1.80;;
12218;SDS011;6172;42.646;23.344;2023-11-19T14:40:01;3.83;;;1.90;;
12218;SDS011;6172;42.646;23.344;2023-11-19T14:42:29;3.43;;;1.70;;
12218;SDS011;6172;42.646;23.344;2023-11-19T14:44:56;1.97;;;1.70;;
12218;SDS011;6172;42.646;23.344;2023-11-19T14:47:23;4.03;;;1.80;;
12218;SDS011;6172;42.646;23.344;2023-11-19T14:49:53;4.13;;;2.20;;
12218;SDS011;6172;42.646;23.344;2023-11-19T14:52:21;1.97;;;1.70;;
12218;SDS011;6172;42.646;23.344;2023-11-19T14:54:49;2.73;;;1.63;;
12218;SDS011;6172;42.646;23.344;2023-11-19T14:57:19;5.93;;;2.03;;
12218;SDS011;6172;42.646;23.344;2023-11-19T14:59:46;5.53;;;1.70;;
12218;SDS011;6172;42.646;23.344;2023-11-19T15:02:12;2.63;;;1.57;;
12218;SDS011;6172;42.646;23.344;2023-11-19T15:04:39;3.03;;;2.07;;
12218;SDS011;6172;42.646;23.344;2023-11-19T15:07:10;3.20;;;2.17;;
12218;SDS011;6172;42.646;23.344;2023-11-19T15:09:37;3.80;;;2.63;;
12218;SDS011;6172;42.646;23.344;2023-11-19T15:12:04;3.43;;;2.00;;
12218;SDS011;6172;42.646;23.344;2023-11-19T15:14:31;7.23;;;2.90;;